Fourmile, KY (40939)

6:03 AM EDT on September 16, 2014 (GMT -0400)
Colmar | Change Station
CLOSE
Current Station
Personal Weather Station
Location: Middlesboro, KY
Elevation: 1135 ft
Nearby Weather Stations

Elev 1135 ft 36.66 °N, 83.67 °W | Updated 5 minutes ago

Overcast
Overcast
64.0 °F
Feels Like 64.0 °F
N
0.0
Wind Variable Wind from NNW

Today
High -- | Low -- °F
--% Chance of Precip.
Yesterday
High -- | Low -- °F
Precip. -- in
7:17 AM 7:40 PM
Waning Gibbous, 47% visible
Pressure 30.11 in
Visibility 10.0 miles
Clouds Overcast 10000 ft
Dew Point 63 °F
Humidity 97%
Rainfall 0.00 in
Snow Depth Not available.
UV 0 out of 12
Pollen 6.50 out of 12
Air Quality Not available.
Flu Activity Not available.
METAR K1A6 160955Z AUTO 00000KT 10SM OVC100 17/17 A3011 RMK AO2 T01730170

More Conditions Fewer Conditions

Pressure 30.11 in
Visibility 10.0 miles
Clouds Overcast 10000 ft
Dew Point 63 °F
Humidity 97%
Rainfall 0.00 in
Snow Depth Not available.
UV 0 out of 12
Pollen 6.50 out of 12
Air Quality Not available.
Flu Activity Not available.
METAR K1A6 160955Z AUTO 00000KT 10SM OVC100 17/17 A3011 RMK AO2 T01730170

More Conditions Fewer Conditions

10-Day Weather Forecast

Almanac

Astronomy

Sep. 16, 2014 Rise Set
Actual Time 7:17 AM EDT 7:40 PM EDT
Civil Twilight 6:51 AM EDT 8:06 PM EDT
Nautical Twilight 6:21 AM EDT 8:37 PM EDT
Astronomical Twilight 5:50 AM EDT 9:07 PM EDT
Moon 12:33 AM EDT 2:57 PM EDT
Length of Visible Light 13h 14m
Length of Day
12h 22m
Tomorrow will be 2m 19s shorter.
Waning Gibbous, 47% of the Moon is Illuminated
Today
Waning Gibbous
Sep 24
New
Oct 1
First Quarter
Oct 8
Full
Oct 15
Last Quarter

Today's Extremes

State Highs State Lows

Community

WunderPhotos

Upload Photos

1,753,717 photos uploaded!

WunderBlogs® & News

Nearby

Snow Depth

Station Depth Elevation
No new snow has been reported.

Earthquake Activity

City Distance Mag. Time & Date
No recent earthquake activity has been reported nearby.
Minimum magnitude displayed is 2.5.

Coastal Water Temperatures

Place Temperature
No Stations Reporting

Nearby Weather Stations